createdAt,value
2022-10-22T00:01:11.971Z,9.45
2022-10-22T00:03:39.152Z,11.35
2022-10-22T00:06:10.564Z,9.13
2022-10-22T00:08:37.935Z,9.15
2022-10-22T00:11:13.689Z,8.80
2022-10-22T00:13:41.445Z,10.55
2022-10-22T00:16:09.161Z,9.57
2022-10-22T00:18:39.856Z,10.52
2022-10-22T00:21:08.531Z,12.82
2022-10-22T00:23:35.883Z,10.05
2022-10-22T00:26:02.941Z,9.95
2022-10-22T00:28:29.946Z,10.23
2022-10-22T00:31:01.263Z,10.73
2022-10-22T00:33:29.708Z,9.18
2022-10-22T00:35:57.170Z,10.80
2022-10-22T00:38:24.948Z,9.75
2022-10-22T00:40:57.250Z,9.32
2022-10-22T00:43:27.616Z,9.98
2022-10-22T00:45:57.274Z,9.25
2022-10-22T00:48:30.269Z,7.95
2022-10-22T00:51:01.109Z,9.48
2022-10-22T00:53:39.931Z,9.63
2022-10-22T00:56:08.139Z,9.48
2022-10-22T00:58:39.444Z,8.52
2022-10-22T01:01:09.345Z,8.75
2022-10-22T01:03:36.452Z,9.07
2022-10-22T01:06:05.247Z,9.38
2022-10-22T01:08:49.355Z,9.85
2022-10-22T01:11:35.889Z,11.02
2022-10-22T01:14:25.674Z,9.52
2022-10-22T01:17:10.511Z,8.70
2022-10-22T01:19:59.330Z,9.18
2022-10-22T01:22:32.446Z,8.55
2022-10-22T01:25:20.938Z,10.50
2022-10-22T01:28:08.894Z,8.80
2022-10-22T01:30:39.421Z,9.02
2022-10-22T01:33:10.447Z,9.45
2022-10-22T01:35:40.841Z,8.07
2022-10-22T01:38:12.540Z,8.45
2022-10-22T01:40:40.077Z,8.75
2022-10-22T01:43:10.214Z,8.88
2022-10-22T01:45:59.287Z,9.65
2022-10-22T01:48:59.029Z,8.98
2022-10-22T01:52:03.221Z,8.73
2022-10-22T01:55:03.165Z,10.18
2022-10-22T01:57:44.415Z,8.25
2022-10-22T02:00:14.736Z,10.07
2022-10-22T02:02:41.790Z,8.60
2022-10-22T02:05:15.352Z,8.30
2022-10-22T02:08:17.399Z,8.32
2022-10-22T02:10:47.204Z,8.40
2022-10-22T02:13:38.550Z,9.13
2022-10-22T02:16:09.647Z,9.82
2022-10-22T02:18:40.043Z,7.65
2022-10-22T02:23:40.003Z,7.78
2022-10-22T02:26:28.714Z,8.48
2022-10-22T02:29:02.070Z,8.55
2022-10-22T02:31:32.562Z,9.40
2022-10-22T02:34:04.946Z,8.18
2022-10-22T02:36:32.468Z,8.63
2022-10-22T02:39:00.223Z,7.95
2022-10-22T02:41:27.724Z,7.50
2022-10-22T02:43:55.794Z,9.75
2022-10-22T02:46:23.607Z,9.63
2022-10-22T02:48:50.655Z,8.77
2022-10-22T02:51:17.535Z,9.15
2022-10-22T02:53:44.557Z,7.35
2022-10-22T02:56:11.706Z,8.60
2022-10-22T02:58:38.522Z,7.93
2022-10-22T03:01:05.623Z,9.02
2022-10-22T03:03:32.589Z,7.93
2022-10-22T03:05:59.553Z,7.78
2022-10-22T03:08:26.657Z,8.40
2022-10-22T03:10:53.583Z,7.90
2022-10-22T03:13:20.392Z,8.60
2022-10-22T03:15:49.969Z,7.72
2022-10-22T03:18:17.500Z,9.65
2022-10-22T03:20:49.528Z,7.22
2022-10-22T03:23:19.837Z,8.27
2022-10-22T03:25:48.811Z,8.48
2022-10-22T03:28:17.207Z,9.00
2022-10-22T03:30:44.092Z,8.52
2022-10-22T03:33:10.970Z,9.50
2022-10-22T03:35:44.690Z,8.45
2022-10-22T03:38:12.084Z,8.98
2022-10-22T03:40:39.429Z,8.30
2022-10-22T03:43:06.352Z,8.52
2022-10-22T03:45:33.222Z,8.40
2022-10-22T03:48:00.140Z,9.80
2022-10-22T03:50:27.018Z,9.98
2022-10-22T03:52:54.412Z,8.75
2022-10-22T03:55:21.287Z,8.43
2022-10-22T03:57:48.155Z,9.50
2022-10-22T04:00:15.195Z,9.00
2022-10-22T04:02:42.079Z,9.38
2022-10-22T04:05:09.059Z,9.85
2022-10-22T04:07:36.226Z,12.75
2022-10-22T04:10:03.509Z,9.48
2022-10-22T04:12:30.534Z,8.90
2022-10-22T04:14:57.489Z,10.50
2022-10-22T04:17:24.539Z,10.40
2022-10-22T04:19:51.422Z,9.65
2022-10-22T04:22:18.296Z,9.15
2022-10-22T04:24:45.200Z,10.32
2022-10-22T04:27:12.112Z,9.75
2022-10-22T04:29:38.957Z,9.82
2022-10-22T04:32:05.920Z,9.80
2022-10-22T04:34:32.783Z,10.82
2022-10-22T04:36:59.691Z,9.05
2022-10-22T04:39:26.602Z,10.93
2022-10-22T04:41:53.773Z,10.80
2022-10-22T04:44:20.666Z,11.65
2022-10-22T04:46:47.623Z,11.27
2022-10-22T04:49:14.477Z,10.70
2022-10-22T04:51:41.484Z,10.57
2022-10-22T04:54:08.303Z,9.82
2022-10-22T04:56:35.194Z,11.48
2022-10-22T04:59:05.331Z,11.15
2022-10-22T05:01:37.014Z,10.75
2022-10-22T05:04:08.485Z,11.95
2022-10-22T05:06:36.806Z,11.68
2022-10-22T05:09:11.391Z,11.55
2022-10-22T05:11:48.641Z,11.45
2022-10-22T05:14:19.031Z,10.90
2022-10-22T05:16:48.418Z,11.57
2022-10-22T05:19:27.539Z,10.85
2022-10-22T05:21:57.382Z,9.07
2022-10-22T05:24:24.943Z,11.55
2022-10-22T05:26:53.653Z,10.18
2022-10-22T05:29:21.006Z,9.18
2022-10-22T05:31:47.908Z,10.73
2022-10-22T05:34:15.242Z,11.27
2022-10-22T05:36:42.496Z,9.75
2022-10-22T05:39:09.637Z,10.25
2022-10-22T05:41:36.889Z,9.77
2022-10-22T05:44:05.218Z,11.52
2022-10-22T05:46:36.104Z,10.52
2022-10-22T05:49:05.428Z,11.60
2022-10-22T05:51:34.735Z,9.43
2022-10-22T05:54:05.071Z,10.23
2022-10-22T05:56:32.372Z,10.75
2022-10-22T05:59:00.117Z,10.25
2022-10-22T06:01:32.284Z,10.18
2022-10-22T06:04:02.322Z,11.68
2022-10-22T06:06:40.729Z,10.25
2022-10-22T06:09:23.038Z,10.73
2022-10-22T06:11:50.936Z,9.80
2022-10-22T06:14:20.161Z,9.73
2022-10-22T06:16:47.457Z,9.57
2022-10-22T06:19:16.280Z,10.88
2022-10-22T06:21:43.672Z,9.63
2022-10-22T06:24:11.590Z,10.50
2022-10-22T06:26:38.764Z,9.68
2022-10-22T06:29:05.748Z,10.25
2022-10-22T06:31:38.831Z,11.18
2022-10-22T06:34:07.720Z,8.43
2022-10-22T06:36:34.988Z,9.10
2022-10-22T06:39:02.194Z,9.45
2022-10-22T06:41:29.826Z,11.23
2022-10-22T06:43:57.911Z,8.98
2022-10-22T06:46:25.762Z,10.60
2022-10-22T06:48:55.688Z,10.27
2022-10-22T06:51:22.638Z,10.68
2022-10-22T06:53:50.158Z,9.38
2022-10-22T06:56:20.374Z,8.73
2022-10-22T06:58:51.596Z,10.20
2022-10-22T07:01:20.822Z,10.07
2022-10-22T07:03:49.739Z,7.88
2022-10-22T07:06:16.729Z,8.15
2022-10-22T07:08:44.125Z,8.05
2022-10-22T07:11:15.691Z,8.60
2022-10-22T07:13:42.928Z,7.70
2022-10-22T07:16:10.883Z,8.80
2022-10-22T07:18:39.321Z,7.63
2022-10-22T07:21:07.192Z,9.05
2022-10-22T07:23:34.744Z,8.35
2022-10-22T07:26:06.692Z,8.57
2022-10-22T07:28:38.803Z,7.93
2022-10-22T07:31:07.045Z,7.10
2022-10-22T07:33:34.305Z,7.03
2022-10-22T07:36:03.469Z,7.00
2022-10-22T07:38:31.561Z,7.25
2022-10-22T07:41:00.781Z,6.00
2022-10-22T07:43:27.766Z,6.55
2022-10-22T07:45:57.619Z,5.25
2022-10-22T07:48:24.697Z,7.03
2022-10-22T07:50:52.046Z,5.90
2022-10-22T07:53:19.078Z,5.82
2022-10-22T07:55:49.108Z,6.53
2022-10-22T07:58:16.957Z,6.05
2022-10-22T08:00:44.133Z,6.15
2022-10-22T08:03:12.622Z,5.78
2022-10-22T08:05:39.920Z,5.97
2022-10-22T08:08:07.462Z,5.38
2022-10-22T08:10:35.012Z,6.50
2022-10-22T08:13:02.266Z,6.60
2022-10-22T08:15:29.192Z,6.03
2022-10-22T08:17:56.083Z,7.53
2022-10-22T08:20:23.215Z,7.43
2022-10-22T08:22:50.131Z,6.13
2022-10-22T08:25:18.235Z,5.80
2022-10-22T08:27:45.736Z,5.18
2022-10-22T08:30:13.317Z,4.93
2022-10-22T08:32:41.009Z,5.80
2022-10-22T08:35:08.725Z,6.93
2022-10-22T08:37:36.355Z,5.63
2022-10-22T08:40:04.671Z,6.10
2022-10-22T08:43:12.202Z,3.70
2022-10-22T08:45:51.177Z,5.22
2022-10-22T08:48:36.418Z,7.68
2022-10-22T08:51:03.351Z,3.92
2022-10-22T08:54:00.706Z,4.45
2022-10-22T08:56:27.538Z,4.07
2022-10-22T08:59:03.345Z,3.83
2022-10-22T09:01:36.869Z,4.95
2022-10-22T09:04:09.842Z,3.92
2022-10-22T09:06:39.878Z,3.00
2022-10-22T09:09:15.274Z,3.28
2022-10-22T09:11:46.727Z,2.72
2022-10-22T09:14:19.626Z,3.03
2022-10-22T09:17:01.466Z,4.30
2022-10-22T09:19:35.716Z,3.63
2022-10-22T09:22:05.527Z,3.33
2022-10-22T09:24:38.785Z,5.22
2022-10-22T09:27:20.818Z,3.05
2022-10-22T09:29:48.606Z,2.40
2022-10-22T09:32:16.384Z,2.33
2022-10-22T09:34:47.903Z,3.40
2022-10-22T09:37:18.776Z,3.05
2022-10-22T09:39:48.182Z,3.22
2022-10-22T09:42:18.268Z,5.30
2022-10-22T09:44:50.355Z,3.38
2022-10-22T09:47:43.224Z,2.90
2022-10-22T09:50:39.503Z,2.50
2022-10-22T09:53:13.034Z,3.65
2022-10-22T09:55:41.970Z,3.75
2022-10-22T09:58:12.713Z,4.45
2022-10-22T10:00:46.491Z,3.45
2022-10-22T10:05:53.434Z,3.88
2022-10-22T10:08:21.090Z,4.28
2022-10-22T10:11:02.753Z,4.13
2022-10-22T10:13:50.571Z,3.30
2022-10-22T10:16:27.554Z,4.50
2022-10-22T10:19:04.905Z,3.30
2022-10-22T10:22:05.397Z,4.70
2022-10-22T10:24:47.341Z,3.08
2022-10-22T10:27:50.503Z,3.80
2022-10-22T10:30:20.729Z,6.03
2022-10-22T10:33:30.306Z,4.38
2022-10-22T10:36:21.409Z,3.47
2022-10-22T10:38:51.881Z,4.43
2022-10-22T10:41:28.713Z,2.85
2022-10-22T10:44:04.412Z,6.13
2022-10-22T10:46:46.502Z,6.78
2022-10-22T10:49:24.517Z,4.07
2022-10-22T10:52:18.865Z,4.63
2022-10-22T10:54:54.173Z,4.85
2022-10-22T10:57:45.875Z,4.38
2022-10-22T11:00:18.513Z,4.53
2022-10-22T11:03:28.930Z,3.88
2022-10-22T11:06:01.892Z,3.03
2022-10-22T11:08:38.169Z,3.17
2022-10-22T11:14:05.357Z,3.70
2022-10-22T11:16:37.654Z,3.88
2022-10-22T11:19:23.161Z,3.90
2022-10-22T11:22:11.918Z,5.03
2022-10-22T11:24:59.248Z,5.15
2022-10-22T11:27:41.445Z,4.97
2022-10-22T11:30:15.970Z,5.38
2022-10-22T11:32:46.489Z,4.22
2022-10-22T11:35:21.148Z,5.15
2022-10-22T11:37:51.741Z,4.18
2022-10-22T11:40:20.314Z,4.35
2022-10-22T11:43:09.814Z,5.32
2022-10-22T11:45:42.270Z,3.22
2022-10-22T11:48:19.329Z,3.60
2022-10-22T11:50:57.475Z,5.38
2022-10-22T11:53:37.014Z,4.22
2022-10-22T11:56:06.934Z,2.92
2022-10-22T11:58:42.846Z,4.30
2022-10-22T12:01:09.638Z,3.90
2022-10-22T12:03:42.414Z,4.15
2022-10-22T12:06:12.526Z,5.45
2022-10-22T12:08:51.318Z,4.55
2022-10-22T12:11:37.142Z,5.07
2022-10-22T12:14:24.422Z,4.65
2022-10-22T12:17:01.851Z,5.05
2022-10-22T12:20:02.060Z,4.07
2022-10-22T12:22:37.116Z,4.38
2022-10-22T12:25:17.579Z,4.88
2022-10-22T12:27:44.600Z,4.00
2022-10-22T12:30:23.672Z,3.55
2022-10-22T12:32:56.709Z,3.40
2022-10-22T12:35:27.233Z,5.50
2022-10-22T12:38:00.500Z,4.85
2022-10-22T12:40:33.237Z,3.25
2022-10-22T12:43:05.481Z,5.80
2022-10-22T12:45:34.959Z,4.85
2022-10-22T12:48:12.632Z,3.58
2022-10-22T12:50:46.101Z,4.00
2022-10-22T12:53:18.492Z,5.03
2022-10-22T12:55:51.171Z,4.18
2022-10-22T12:58:21.950Z,5.00
2022-10-22T13:00:49.300Z,4.47
2022-10-22T13:03:28.406Z,3.42
2022-10-22T13:05:55.287Z,2.70
2022-10-22T13:08:26.529Z,3.15
2022-10-22T13:10:54.671Z,3.65
2022-10-22T13:13:42.477Z,3.30
2022-10-22T13:16:24.403Z,3.70
2022-10-22T13:18:52.853Z,3.03
2022-10-22T13:21:35.015Z,3.03
2022-10-22T13:24:25.967Z,2.95
2022-10-22T13:26:55.247Z,2.47
2022-10-22T13:29:24.040Z,2.20
2022-10-22T13:31:53.494Z,1.98
2022-10-22T13:34:25.656Z,1.85
2022-10-22T13:36:53.406Z,2.00
2022-10-22T13:39:24.769Z,1.40
2022-10-22T13:41:52.332Z,1.55
2022-10-22T13:44:19.874Z,1.98
2022-10-22T13:46:48.391Z,1.70
2022-10-22T13:49:24.711Z,2.38
2022-10-22T13:51:52.717Z,1.42
2022-10-22T13:54:22.683Z,2.80
2022-10-22T13:56:49.628Z,2.28
2022-10-22T13:59:18.531Z,1.50
2022-10-22T14:01:48.212Z,3.20
2022-10-22T14:04:15.633Z,3.15
2022-10-22T14:06:42.806Z,2.45
2022-10-22T14:09:14.946Z,2.95
2022-10-22T14:11:41.986Z,3.03
2022-10-22T14:14:09.277Z,5.68
2022-10-22T14:16:37.719Z,2.28
2022-10-22T14:19:07.987Z,2.10
2022-10-22T14:21:37.931Z,2.60
2022-10-22T14:24:07.236Z,4.38
2022-10-22T14:26:36.483Z,2.25
2022-10-22T14:29:09.334Z,2.63
2022-10-22T14:31:42.090Z,2.75
2022-10-22T14:34:14.570Z,2.25
2022-10-22T14:36:43.748Z,1.75
2022-10-22T14:39:11.331Z,2.45
2022-10-22T14:41:38.722Z,1.63
2022-10-22T14:44:05.629Z,1.70
2022-10-22T14:46:32.646Z,3.35
2022-10-22T14:49:00.599Z,1.90
2022-10-22T14:51:27.487Z,2.47
2022-10-22T14:53:54.383Z,2.83
2022-10-22T14:56:21.543Z,3.20
2022-10-22T14:58:49.177Z,1.40
2022-10-22T15:01:16.518Z,1.65
2022-10-22T15:03:43.534Z,1.13
2022-10-22T15:06:10.371Z,1.65
2022-10-22T15:08:40.312Z,2.03
2022-10-22T15:11:10.579Z,2.08
2022-10-22T15:13:37.777Z,2.00
2022-10-22T15:16:09.084Z,1.98
2022-10-22T15:18:36.070Z,4.40
2022-10-22T15:21:08.544Z,2.38
2022-10-22T15:23:36.579Z,1.85
2022-10-22T15:26:03.606Z,2.30
2022-10-22T15:28:30.476Z,2.60
2022-10-22T15:30:59.387Z,3.75
2022-10-22T15:33:27.960Z,3.83
2022-10-22T15:35:55.932Z,2.67
2022-10-22T15:41:05.432Z,2.53
2022-10-22T15:43:33.894Z,3.90
2022-10-22T15:46:15.930Z,3.08
2022-10-22T15:48:43.347Z,3.30
2022-10-22T15:51:12.991Z,3.00
2022-10-22T15:53:40.437Z,3.65
2022-10-22T15:56:07.844Z,3.28
2022-10-22T15:58:34.734Z,3.42
2022-10-22T16:01:10.245Z,2.90
2022-10-22T16:03:37.673Z,4.45
2022-10-22T16:06:05.856Z,5.13
2022-10-22T16:08:33.111Z,4.70
2022-10-22T16:11:00.557Z,5.65
2022-10-22T16:13:27.782Z,3.42
2022-10-22T16:15:54.857Z,4.50
2022-10-22T16:18:23.535Z,4.18
2022-10-22T16:20:50.604Z,4.05
2022-10-22T16:23:19.051Z,4.50
2022-10-22T16:25:46.715Z,5.07
2022-10-22T16:28:14.387Z,4.05
2022-10-22T16:30:41.844Z,4.35
2022-10-22T16:33:09.714Z,6.93
2022-10-22T16:35:41.356Z,7.03
2022-10-22T16:38:10.261Z,5.40
2022-10-22T16:40:37.463Z,5.72
2022-10-22T16:43:04.344Z,8.95
2022-10-22T16:45:31.219Z,6.03
2022-10-22T16:48:03.202Z,9.43
2022-10-22T16:50:30.232Z,5.20
2022-10-22T16:52:57.308Z,6.65
2022-10-22T16:55:24.125Z,6.47
2022-10-22T16:57:53.393Z,6.95
2022-10-22T17:00:21.047Z,7.43
2022-10-22T17:02:53.224Z,8.50
2022-10-22T17:05:20.830Z,6.18
2022-10-22T17:07:47.709Z,7.55
2022-10-22T17:10:15.469Z,4.47
2022-10-22T17:12:42.660Z,7.15
2022-10-22T17:15:10.032Z,9.20
2022-10-22T17:17:37.080Z,4.72
2022-10-22T17:20:04.349Z,5.45
2022-10-22T17:22:31.880Z,5.47
2022-10-22T17:25:11.234Z,5.30
2022-10-22T17:27:38.525Z,7.43
2022-10-22T17:30:07.263Z,4.90
2022-10-22T17:32:39.016Z,5.55
2022-10-22T17:35:07.528Z,4.53
2022-10-22T17:37:35.248Z,4.60
2022-10-22T17:40:02.965Z,8.73
2022-10-22T17:42:30.078Z,7.72
2022-10-22T17:44:57.928Z,7.45
2022-10-22T17:47:25.030Z,4.70
2022-10-22T17:49:52.095Z,5.07
2022-10-22T17:52:18.968Z,7.35
2022-10-22T17:54:48.322Z,9.60
2022-10-22T17:57:15.460Z,5.32
2022-10-22T17:59:42.581Z,6.68
2022-10-22T18:02:15.304Z,5.90
2022-10-22T18:04:42.403Z,5.18
2022-10-22T18:07:09.505Z,5.40
2022-10-22T18:09:36.444Z,5.65
2022-10-22T18:12:03.448Z,8.32
2022-10-22T18:14:30.418Z,9.75
2022-10-22T18:16:57.356Z,6.47
2022-10-22T18:19:24.705Z,4.35
2022-10-22T18:21:51.580Z,6.50
2022-10-22T18:24:18.687Z,8.50
2022-10-22T18:26:45.605Z,6.97
2022-10-22T18:29:16.905Z,7.45
2022-10-22T18:31:44.752Z,5.85
2022-10-22T18:34:12.320Z,7.13
2022-10-22T18:36:41.246Z,6.43
2022-10-22T18:39:08.348Z,6.05
2022-10-22T18:41:36.064Z,6.35
2022-10-22T18:44:05.617Z,6.85
2022-10-22T18:46:39.132Z,5.80
2022-10-22T18:49:07.197Z,7.35
2022-10-22T18:51:34.905Z,6.50
2022-10-22T18:54:21.816Z,5.72
2022-10-22T18:56:49.761Z,9.10
2022-10-22T18:59:24.958Z,6.05
2022-10-22T19:01:54.189Z,5.65
2022-10-22T19:04:21.542Z,5.15
2022-10-22T19:06:48.511Z,6.72
2022-10-22T19:09:16.135Z,4.43
2022-10-22T19:11:45.140Z,5.68
2022-10-22T19:14:14.783Z,5.05
2022-10-22T19:16:41.962Z,7.15
2022-10-22T19:19:09.089Z,5.85
2022-10-22T19:21:37.412Z,6.55
2022-10-22T19:24:04.493Z,6.57
2022-10-22T19:26:32.147Z,9.70
2022-10-22T19:29:00.052Z,6.45
2022-10-22T19:31:29.939Z,6.90
2022-10-22T19:33:57.896Z,7.05
2022-10-22T19:36:27.626Z,8.57
2022-10-22T19:38:54.881Z,7.32
2022-10-22T19:41:23.947Z,5.82
2022-10-22T19:43:53.149Z,7.43
2022-10-22T19:46:21.268Z,10.27
2022-10-22T19:48:49.809Z,10.18
2022-10-22T19:51:22.414Z,10.95
2022-10-22T19:53:51.215Z,6.90
2022-10-22T19:56:20.498Z,8.23
2022-10-22T19:58:47.947Z,7.70
2022-10-22T20:01:17.674Z,5.90
2022-10-22T20:03:45.323Z,6.95
2022-10-22T20:06:14.269Z,7.95
2022-10-22T20:08:41.537Z,7.47
2022-10-22T20:11:11.210Z,7.82
2022-10-22T20:16:11.098Z,6.10
2022-10-22T20:18:39.033Z,7.10
2022-10-22T20:21:07.632Z,5.82
2022-10-22T20:23:34.933Z,6.00
2022-10-22T20:26:02.011Z,5.78
2022-10-22T20:28:28.925Z,6.38
2022-10-22T20:30:55.944Z,5.43
2022-10-22T20:33:23.559Z,5.35
2022-10-22T20:36:05.507Z,6.05
2022-10-22T20:38:32.478Z,4.88
2022-10-22T20:41:05.015Z,6.50
2022-10-22T20:43:32.554Z,6.70
2022-10-22T20:46:00.248Z,7.18
2022-10-22T20:48:31.211Z,5.65
2022-10-22T20:50:59.489Z,7.53
2022-10-22T20:53:27.232Z,8.48
2022-10-22T20:55:58.858Z,7.47
2022-10-22T20:58:27.250Z,10.73
2022-10-22T21:00:55.402Z,8.15
2022-10-22T21:03:23.080Z,5.50
2022-10-22T21:05:50.064Z,6.55
2022-10-22T21:08:17.767Z,8.40
2022-10-22T21:10:46.455Z,5.45
2022-10-22T21:13:13.906Z,6.97
2022-10-22T21:15:41.078Z,5.53
2022-10-22T21:18:08.658Z,7.68
2022-10-22T21:20:35.576Z,6.28
2022-10-22T21:23:03.238Z,6.45
2022-10-22T21:25:30.113Z,6.43
2022-10-22T21:27:57.149Z,7.10
2022-10-22T21:30:24.123Z,7.90
2022-10-22T21:32:52.011Z,7.15
2022-10-22T21:35:18.945Z,9.20
2022-10-22T21:37:48.561Z,7.88
2022-10-22T21:40:15.618Z,7.60
2022-10-22T21:42:42.908Z,9.07
2022-10-22T21:45:13.172Z,9.57
2022-10-22T21:47:41.951Z,8.82
2022-10-22T21:50:09.435Z,8.63
2022-10-22T21:52:36.317Z,8.57
2022-10-22T21:55:03.262Z,11.70
2022-10-22T21:57:30.326Z,10.32
2022-10-22T21:59:57.294Z,7.65
2022-10-22T22:02:24.205Z,9.75
2022-10-22T22:04:54.790Z,8.15
2022-10-22T22:07:22.250Z,8.15
2022-10-22T22:09:50.386Z,9.23
2022-10-22T22:12:17.829Z,8.23
2022-10-22T22:14:44.891Z,9.70
2022-10-22T22:17:12.174Z,7.13
2022-10-22T22:19:40.501Z,6.72
2022-10-22T22:22:07.422Z,7.30
2022-10-22T22:24:34.926Z,8.57
2022-10-22T22:27:01.752Z,8.23
2022-10-22T22:29:28.636Z,8.27
2022-10-22T22:31:55.640Z,9.30
2022-10-22T22:34:22.691Z,8.50
2022-10-22T22:36:49.865Z,10.48
2022-10-22T22:39:23.232Z,11.27
2022-10-22T22:41:50.380Z,7.65
2022-10-22T22:44:17.429Z,9.95
2022-10-22T22:46:44.414Z,8.55
2022-10-22T22:49:13.017Z,8.98
2022-10-22T22:51:39.984Z,12.80
2022-10-22T22:54:06.951Z,8.57
2022-10-22T22:56:34.609Z,8.43
2022-10-22T22:59:02.219Z,9.98
2022-10-22T23:01:34.918Z,10.00
2022-10-22T23:04:07.438Z,8.40
2022-10-22T23:06:38.866Z,10.07
2022-10-22T23:09:08.361Z,8.43
2022-10-22T23:11:35.751Z,8.85
2022-10-22T23:14:05.642Z,9.60
2022-10-22T23:16:34.811Z,9.18
2022-10-22T23:19:02.706Z,10.05
2022-10-22T23:21:35.636Z,10.10
2022-10-22T23:24:06.375Z,9.88
2022-10-22T23:26:36.605Z,10.70
2022-10-22T23:29:19.345Z,11.48
2022-10-22T23:31:47.876Z,8.63
2022-10-22T23:36:50.905Z,10.65
2022-10-22T23:39:20.114Z,11.30
2022-10-22T23:41:47.314Z,11.77
2022-10-22T23:44:14.369Z,9.82
2022-10-22T23:46:41.932Z,12.50
2022-10-22T23:49:10.438Z,9.27
2022-10-22T23:51:38.278Z,8.73
2022-10-22T23:54:08.235Z,9.05
2022-10-22T23:56:35.817Z,8.77
2022-10-22T23:59:03.651Z,10.07
